Time;durP1;ratioP1;P1;durP2;ratioP2;P2;SDS_P1;SDS_P2;PMS_P1;PMS_P2;Temp;Humidity;BMP_temperature;BMP_pressure;BME280_temperature;BME280_humidity;BME280_pressure;Samples;Min_cycle;Max_cycle;Signal;HPM_P1;HPM_P2
2021/05/23 00:02:06;;;;;;;18.40;6.72;;;;;;;16.98;73.77;100157.88;5173667;27;20049;-81
2021/05/23 00:05:13;;;;;;;10.43;5.80;;;;;;;16.97;73.76;100167.03;5172651;27;20058;-81
2021/05/23 00:08:20;;;;;;;14.85;6.78;;;;;;;16.86;74.17;100172.88;5172616;27;20050;-80
2021/05/23 00:11:24;;;;;;;13.18;5.97;;;;;;;16.92;74.12;100164.84;5172711;27;20053;-87
2021/05/23 00:14:29;;;;;;;11.50;6.30;;;;;;;16.92;74.09;100172.16;5172526;27;20058;-81
2021/05/23 00:17:33;;;;;;;9.82;5.97;;;;;;;16.87;73.79;100163.69;5172917;27;20512;-81
2021/05/23 00:20:38;;;;;;;14.23;6.47;;;;;;;16.90;73.67;100160.63;5173535;27;20053;-77
2021/05/23 00:23:43;;;;;;;15.38;7.32;;;;;;;16.86;73.96;100167.44;5173086;27;20053;-77
2021/05/23 00:26:47;;;;;;;13.35;6.38;;;;;;;16.85;73.82;100173.88;5160127;27;20050;-85
2021/05/23 00:29:51;;;;;;;16.98;6.60;;;;;;;16.85;73.80;100182.03;5159329;27;20049;-82
2021/05/23 00:32:56;;;;;;;18.13;7.13;;;;;;;16.84;73.98;100172.19;5172857;27;20056;-76
2021/05/23 00:36:00;;;;;;;15.68;6.13;;;;;;;16.83;73.81;100168.66;5173561;27;20050;-84
2021/05/23 00:39:06;;;;;;;15.32;7.25;;;;;;;16.57;74.59;100162.69;5173614;27;20041;-80
2021/05/23 00:42:11;;;;;;;13.18;7.40;;;;;;;16.54;75.27;100159.50;5172701;27;20049;-74
2021/05/23 00:45:17;;;;;;;16.58;6.90;;;;;;;16.56;75.36;100168.31;5173008;27;20037;-81
2021/05/23 00:48:22;;;;;;;16.20;7.45;;;;;;;16.47;74.83;100170.16;5173194;27;20484;-86
2021/05/23 00:51:27;;;;;;;14.13;7.90;;;;;;;16.34;75.73;100163.63;5160125;27;20045;-87
2021/05/23 00:54:35;;;;;;;15.20;6.95;;;;;;;16.38;75.51;100167.66;5173265;27;20041;-82
2021/05/23 00:57:39;;;;;;;13.65;8.10;;;;;;;16.36;75.66;100173.28;5184972;27;20042;-79
2021/05/23 01:00:47;;;;;;;14.18;6.50;;;;;;;16.43;75.67;100182.38;5180971;27;20049;-75
2021/05/23 01:03:56;;;;;;;17.08;7.40;;;;;;;16.42;75.62;100177.16;5180640;27;20389;-81
2021/05/23 01:07:00;;;;;;;10.43;6.80;;;;;;;16.51;75.27;100173.38;5155826;27;20058;-83
2021/05/23 01:10:11;;;;;;;8.80;6.35;;;;;;;16.50;75.33;100185.22;5158729;27;20050;-84
2021/05/23 01:13:34;;;;;;;13.50;6.80;;;;;;;16.39;75.52;100189.19;5158616;27;20053;-82
2021/05/23 01:16:43;;;;;;;22.33;7.10;;;;;;;16.31;74.99;100177.53;5158556;27;20046;-83
2021/05/23 01:20:03;;;;;;;11.93;7.22;;;;;;;16.32;75.27;100171.09;5145801;27;20492;-75
2021/05/23 01:23:19;;;;;;;14.07;7.00;;;;;;;16.30;75.66;100176.69;5158551;27;20045;-76
2021/05/23 01:26:25;;;;;;;13.07;7.40;;;;;;;16.24;75.58;100185.53;5158324;27;20054;-80
2021/05/23 01:29:30;;;;;;;15.38;7.13;;;;;;;16.20;75.89;100179.59;5158105;27;20120;-88
2021/05/23 01:32:36;;;;;;;13.30;7.20;;;;;;;16.24;75.81;100171.97;5145420;27;20054;-81
2021/05/23 01:35:46;;;;;;;13.35;7.57;;;;;;;16.15;76.12;100186.53;5145312;27;20061;-86
2021/05/23 01:38:51;;;;;;;15.38;7.57;;;;;;;16.03;76.24;100188.78;5158323;27;20057;-81
2021/05/23 01:41:57;;;;;;;14.77;7.38;;;;;;;16.05;76.22;100175.06;5157750;27;20050;-77
2021/05/23 01:45:02;;;;;;;17.05;7.57;;;;;;;16.10;75.88;100176.25;5158030;27;20047;-79
2021/05/23 01:48:09;;;;;;;13.23;7.05;;;;;;;16.07;76.63;100187.41;5157849;27;20046;-83
2021/05/23 01:51:15;;;;;;;11.63;6.82;;;;;;;15.85;76.91;100188.16;5157238;27;20054;-79
2021/05/23 01:54:19;;;;;;;13.93;7.07;;;;;;;15.68;76.85;100191.91;5157349;27;20058;-81
2021/05/23 01:57:24;;;;;;;15.73;7.47;;;;;;;15.59;77.58;100196.50;5158125;27;20053;-76
2021/05/23 02:00:41;;;;;;;15.15;6.90;;;;;;;15.52;77.85;100192.78;5157741;27;20050;-83
2021/05/23 02:03:46;;;;;;;15.25;7.68;;;;;;;15.39;78.19;100196.97;5157586;27;20042;-83
2021/05/23 02:06:51;;;;;;;14.55;8.23;;;;;;;15.40;78.04;100194.13;5157371;27;20049;-80
2021/05/23 02:09:56;;;;;;;12.15;7.20;;;;;;;15.39;78.36;100187.00;5157596;27;20058;-80
2021/05/23 02:13:03;;;;;;;12.45;7.28;;;;;;;15.33;78.52;100176.84;5157402;27;20057;-77
2021/05/23 02:16:08;;;;;;;17.52;7.80;;;;;;;15.34;78.90;100183.09;5158072;27;20073;-85
2021/05/23 02:19:12;;;;;;;11.43;7.03;;;;;;;15.41;78.26;100178.72;5157288;27;20046;-87
2021/05/23 02:22:17;;;;;;;12.23;7.07;;;;;;;15.53;78.05;100172.81;5144781;27;20065;-84
2021/05/23 02:25:21;;;;;;;14.30;7.18;;;;;;;15.58;77.87;100175.00;5144694;27;20054;-78
2021/05/23 02:28:26;;;;;;;14.23;7.50;;;;;;;15.53;78.10;100171.97;5144313;27;20049;-79
2021/05/23 02:31:30;;;;;;;14.88;7.57;;;;;;;15.59;78.06;100172.16;5157197;27;20468;-81
2021/05/23 02:34:28;;;;;;;14.40;6.88;;;;;;;15.48;77.64;100177.06;5149626;27;20057;-81
2021/05/23 02:37:33;;;;;;;12.35;7.50;;;;;;;15.48;78.29;100185.19;5144105;27;20120;-83
2021/05/23 02:40:38;;;;;;;13.45;7.57;;;;;;;15.37;78.16;100171.97;5157092;27;20050;-85
2021/05/23 02:43:42;;;;;;;20.17;8.93;;;;;;;15.26;78.79;100162.31;5156860;27;20050;-80
2021/05/23 02:46:47;;;;;;;13.85;7.95;;;;;;;15.28;79.07;100167.56;5156782;27;20054;-82
2021/05/23 02:49:52;;;;;;;11.88;7.32;;;;;;;15.22;78.82;100170.94;5156670;27;20046;-86
2021/05/23 02:52:57;;;;;;;15.60;7.38;;;;;;;15.09;79.33;100176.00;5156564;27;20389;-84
2021/05/23 02:56:02;;;;;;;14.35;7.88;;;;;;;15.09;79.86;100163.31;5156511;27;20116;-83
2021/05/23 02:59:06;;;;;;;12.98;7.93;;;;;;;15.03;79.67;100160.47;5156281;27;20052;-77
2021/05/23 03:02:12;;;;;;;12.40;7.72;;;;;;;15.07;79.37;100154.53;5156774;27;20053;-83
2021/05/23 03:05:19;;;;;;;14.95;8.77;;;;;;;15.13;79.24;100163.84;5156490;27;20453;-81
2021/05/23 03:08:23;;;;;;;14.75;7.88;;;;;;;15.22;79.45;100157.41;5143788;27;20062;-80
2021/05/23 03:11:28;;;;;;;15.02;7.93;;;;;;;15.20;79.47;100149.50;5156415;27;20377;-77
2021/05/23 03:14:32;;;;;;;13.32;8.25;;;;;;;15.25;79.36;100157.09;5156308;27;20053;-85
2021/05/23 03:17:37;;;;;;;17.35;7.43;;;;;;;15.25;79.13;100151.69;5156406;27;20054;-83
2021/05/23 03:20:49;;;;;;;11.60;6.70;;;;;;;15.26;78.46;100158.75;5156098;27;20050;-82
2021/05/23 03:23:53;;;;;;;13.13;7.80;;;;;;;15.25;78.85;100159.78;5143485;27;20045;-80
2021/05/23 03:26:58;;;;;;;15.35;6.90;;;;;;;15.21;78.26;100166.56;5155216;27;20046;-79
2021/05/23 03:30:08;;;;;;;8.55;6.63;;;;;;;15.26;77.97;100148.78;5130683;27;20042;-80
2021/05/23 03:33:14;;;;;;;12.82;6.78;;;;;;;15.34;78.49;100161.47;5142885;27;20412;-81
2021/05/23 03:36:18;;;;;;;13.77;6.95;;;;;;;15.31;77.54;100162.66;5130894;27;20070;-78
2021/05/23 03:39:23;;;;;;;14.57;7.10;;;;;;;15.33;77.39;100170.63;5142594;27;20046;-79
2021/05/23 03:42:27;;;;;;;12.75;7.30;;;;;;;15.31;77.44;100180.72;5155450;27;20405;-81
2021/05/23 03:45:31;;;;;;;13.38;6.97;;;;;;;15.32;77.45;100167.06;5155333;27;20046;-81
2021/05/23 03:48:36;;;;;;;14.90;7.70;;;;;;;15.28;78.28;100171.09;5160173;27;20042;-77
2021/05/23 03:51:45;;;;;;;16.67;8.38;;;;;;;15.27;77.97;100169.44;5170547;27;20045;-78
2021/05/23 03:54:49;;;;;;;14.73;8.15;;;;;;;15.31;77.94;100162.66;5169687;27;20065;-81
2021/05/23 03:57:55;;;;;;;15.13;8.70;;;;;;;15.38;77.77;100168.25;5162951;27;20504;-86
2021/05/23 04:00:59;;;;;;;14.95;7.55;;;;;;;15.28;78.03;100157.56;5154992;27;20057;-83
2021/05/23 04:04:06;;;;;;;14.98;8.48;;;;;;;15.29;78.20;100155.72;5155027;27;20054;-83
2021/05/23 04:07:11;;;;;;;12.90;6.65;;;;;;;15.42;77.39;100167.72;5154893;27;20054;-84
2021/05/23 04:10:18;;;;;;;14.85;8.15;;;;;;;15.52;77.64;100170.28;5142323;27;20046;-84
2021/05/23 04:13:23;;;;;;;11.05;6.35;;;;;;;15.65;76.99;100170.63;5155272;27;20504;-80
2021/05/23 04:16:28;;;;;;;12.90;6.43;;;;;;;15.73;76.27;100176.00;5142089;27;20487;-85
2021/05/23 04:19:32;;;;;;;13.30;6.95;;;;;;;15.84;75.84;100172.94;5142724;27;20046;-86
2021/05/23 04:22:38;;;;;;;19.55;8.63;;;;;;;15.90;76.22;100169.53;5155130;27;20045;-86
2021/05/23 04:25:42;;;;;;;15.20;8.63;;;;;;;15.87;76.40;100166.34;5150015;27;20520;-81
2021/05/23 04:28:47;;;;;;;11.65;7.90;;;;;;;16.05;76.39;100175.91;5138710;27;20069;-87
2021/05/23 04:31:51;;;;;;;14.80;7.50;;;;;;;16.35;75.18;100176.16;5155483;27;20385;-84
2021/05/23 04:34:55;;;;;;;16.08;7.80;;;;;;;16.58;74.19;100164.41;5134474;28;20392;-84
2021/05/23 04:38:01;;;;;;;12.52;7.57;;;;;;;16.76;73.64;100166.84;5134637;28;20046;-83
2021/05/23 04:41:05;;;;;;;16.50;8.27;;;;;;;16.86;73.21;100168.28;5135487;27;20046;-79
2021/05/23 04:44:10;;;;;;;14.98;8.43;;;;;;;17.00;72.51;100163.97;5138764;27;20386;-79
2021/05/23 04:47:14;;;;;;;15.98;8.65;;;;;;;17.04;72.71;100165.28;5138317;27;20050;-88
2021/05/23 04:50:18;;;;;;;11.75;7.97;;;;;;;16.95;72.52;100163.66;5125834;27;20043;-86
2021/05/23 04:53:22;;;;;;;19.05;8.93;;;;;;;16.95;72.71;100179.06;5137859;27;20046;-83
2021/05/23 04:56:27;;;;;;;12.25;8.18;;;;;;;17.07;72.50;100181.19;5125323;27;20050;-82
2021/05/23 04:59:32;;;;;;;14.10;7.32;;;;;;;17.19;71.67;100162.63;5144313;27;20046;-79
2021/05/23 05:02:18;;;;;;;16.45;7.57;;;;;;;17.31;71.16;100178.28;5158901;27;20042;-84
2021/05/23 05:05:22;;;;;;;13.85;7.18;;;;;;;17.43;71.21;100182.25;5159309;27;20054;-82
2021/05/23 05:08:27;;;;;;;12.50;6.68;;;;;;;17.20;71.64;100180.59;5158721;27;20151;-81
2021/05/23 05:11:31;;;;;;;21.15;7.30;;;;;;;17.14;72.67;100192.16;5158605;27;20046;-85
2021/05/23 05:14:37;;;;;;;14.95;6.45;;;;;;;17.20;72.57;100200.44;5158513;27;20046;-78
2021/05/23 05:17:42;;;;;;;13.68;6.72;;;;;;;17.07;72.55;100193.91;5158467;27;20476;-85
2021/05/23 05:20:46;;;;;;;11.93;6.10;;;;;;;17.12;72.61;100195.06;5134235;27;20058;-78
2021/05/23 05:23:51;;;;;;;12.07;7.07;;;;;;;16.93;73.75;100206.38;5145837;27;20124;-83
2021/05/23 05:26:55;;;;;;;11.38;6.20;;;;;;;16.97;74.48;100196.00;5158239;27;20050;-84
2021/05/23 05:30:00;;;;;;;12.88;7.28;;;;;;;17.18;73.74;100193.50;5157915;27;20065;-80
2021/05/23 05:33:04;;;;;;;11.55;6.80;;;;;;;17.32;72.89;100198.97;5145385;27;20589;-82
2021/05/23 05:36:08;;;;;;;15.32;7.30;;;;;;;17.64;71.86;100211.47;5157955;27;20057;-79
2021/05/23 05:39:13;;;;;;;14.15;6.70;;;;;;;17.92;71.03;100204.41;5158249;27;20038;-77
2021/05/23 05:42:17;;;;;;;11.27;5.97;;;;;;;18.09;70.66;100213.22;5158060;27;20097;-86
2021/05/23 05:45:22;;;;;;;15.25;8.10;;;;;;;18.13;69.66;100200.94;5158216;27;20053;-81
2021/05/23 05:48:26;;;;;;;12.88;7.78;;;;;;;18.26;68.67;100192.13;5157859;27;20485;-86
2021/05/23 05:51:30;;;;;;;14.38;6.85;;;;;;;18.66;67.59;100197.97;5157734;27;20065;-79
2021/05/23 05:54:35;;;;;;;12.07;6.60;;;;;;;18.96;66.75;100216.91;5157200;27;20050;-81
2021/05/23 05:57:40;;;;;;;13.10;6.88;;;;;;;19.05;66.29;100215.75;5157354;27;20054;-81
2021/05/23 06:00:44;;;;;;;17.48;6.68;;;;;;;19.06;66.42;100222.91;5154426;27;20046;-88
2021/05/23 06:03:49;;;;;;;12.70;6.60;;;;;;;19.17;65.90;100214.22;5124273;27;20046;-85
2021/05/23 06:06:53;;;;;;;13.13;6.85;;;;;;;19.27;66.08;100217.47;5137012;27;20054;-82
2021/05/23 06:09:57;;;;;;;17.33;6.95;;;;;;;20.39;63.34;100224.72;5124277;27;20058;-80
2021/05/23 06:13:04;;;;;;;12.73;7.18;;;;;;;21.97;58.22;100224.97;5136948;27;20412;-79
2021/05/23 06:16:08;;;;;;;16.38;7.60;;;;;;;22.55;54.89;100217.72;5136301;27;20500;-79
2021/05/23 06:19:13;;;;;;;12.95;7.63;;;;;;;22.79;54.73;100212.63;5137516;27;20054;-82
2021/05/23 06:22:18;;;;;;;11.50;6.65;;;;;;;22.41;55.67;100207.88;5136416;27;20062;-81
2021/05/23 06:25:23;;;;;;;14.70;7.18;;;;;;;21.93;57.14;100220.13;5136646;27;20050;-82
2021/05/23 06:28:27;;;;;;;12.13;6.70;;;;;;;22.44;56.57;100209.34;5156323;27;20050;-78
2021/05/23 06:31:32;;;;;;;17.08;7.90;;;;;;;24.09;52.01;100213.66;5134768;27;20046;-78
2021/05/23 06:34:36;;;;;;;17.25;8.68;;;;;;;25.21;49.67;100219.53;5156195;27;20070;-77
2021/05/23 06:37:41;;;;;;;20.85;10.52;;;;;;;25.25;49.18;100213.56;5144303;27;20049;-75
2021/05/23 06:40:45;;;;;;;35.08;18.33;;;;;;;25.51;48.89;100218.69;5136160;27;20476;-75
2021/05/23 06:43:50;;;;;;;22.35;10.50;;;;;;;26.21;46.70;100226.00;5141025;27;20039;-79
2021/05/23 06:46:54;;;;;;;20.33;7.90;;;;;;;26.67;46.12;100207.75;5132211;27;20051;-75
2021/05/23 06:49:59;;;;;;;22.33;14.80;;;;;;;28.60;40.46;100198.03;5136754;27;20053;-75
2021/05/23 06:53:05;;;;;;;18.67;13.90;;;;;;;30.28;37.60;100194.78;5133769;27;20391;-80
2021/05/23 06:56:10;;;;;;;14.13;6.28;;;;;;;32.14;34.43;100186.22;5132924;27;20062;-79
2021/05/23 06:59:14;;;;;;;14.25;6.40;;;;;;;32.01;34.74;100180.41;5120881;27;20548;-84
2021/05/23 07:02:20;;;;;;;11.68;6.38;;;;;;;32.97;33.52;100182.91;5133773;27;20042;-78
2021/05/23 07:05:24;;;;;;;11.55;6.45;;;;;;;32.81;33.11;100181.31;5121506;27;20050;-84
2021/05/23 07:08:29;;;;;;;12.52;5.90;;;;;;;32.85;34.04;100168.50;5135649;27;20480;-85
2021/05/23 07:11:33;;;;;;;13.73;6.25;;;;;;;33.32;33.46;100185.53;5135610;27;20042;-85
2021/05/23 07:14:41;;;;;;;11.15;6.25;;;;;;;33.66;32.55;100180.00;5135410;27;20062;-84
2021/05/23 07:17:47;;;;;;;12.75;6.97;;;;;;;33.53;33.21;100189.81;5122511;27;20058;-78
2021/05/23 07:20:54;;;;;;;12.57;6.30;;;;;;;33.43;33.10;100214.94;5122734;27;20477;-83
2021/05/23 07:23:59;;;;;;;13.55;6.30;;;;;;;33.38;33.58;100218.59;5135329;27;20417;-80
2021/05/23 07:27:03;;;;;;;13.80;6.50;;;;;;;34.36;31.98;100214.78;5135181;27;20043;-83
2021/05/23 07:30:09;;;;;;;15.85;10.77;;;;;;;34.69;32.25;100216.66;5122584;27;20047;-82
2021/05/23 07:33:17;;;;;;;13.00;6.50;;;;;;;34.43;31.54;100215.28;5135126;27;20042;-85
2021/05/23 07:36:21;;;;;;;10.52;5.47;;;;;;;34.51;31.97;100218.25;5122356;27;20054;-79
2021/05/23 07:39:26;;;;;;;13.38;5.10;;;;;;;36.27;28.91;100211.34;5135113;27;20109;-82
2021/05/23 07:42:30;;;;;;;11.02;4.93;;;;;;;38.80;26.12;100219.19;5135072;27;20046;-83
2021/05/23 07:45:35;;;;;;;8.57;4.43;;;;;;;39.23;24.07;100218.50;5135030;27;20058;-76
2021/05/23 07:48:39;;;;;;;15.65;3.95;;;;;;;38.92;24.66;100210.97;5135172;27;20054;-83
2021/05/23 07:51:45;;;;;;;11.40;3.90;;;;;;;39.07;24.24;100214.47;5121925;27;20492;-86
2021/05/23 07:54:49;;;;;;;12.57;3.40;;;;;;;40.14;23.07;100225.66;5134142;28;20403;-85
2021/05/23 07:57:53;;;;;;;9.20;3.70;;;;;;;40.23;22.39;100226.47;5134388;28;20065;-85
2021/05/23 08:00:58;;;;;;;9.25;3.30;;;;;;;41.02;21.62;100231.50;5134467;28;20065;-79
2021/05/23 08:04:03;;;;;;;11.23;3.40;;;;;;;40.99;21.99;100234.19;5134341;28;20046;-76
2021/05/23 08:07:07;;;;;;;13.05;3.97;;;;;;;40.69;22.36;100242.56;5133782;27;20054;-76
2021/05/23 08:10:13;;;;;;;9.95;3.75;;;;;;;41.44;21.12;100247.34;5144129;27;20054;-79
2021/05/23 08:13:18;;;;;;;8.77;3.47;;;;;;;39.79;23.11;100257.75;5134630;28;20047;-82
2021/05/23 08:16:22;;;;;;;9.68;3.67;;;;;;;38.35;23.81;100252.13;5136334;27;20046;-76
2021/05/23 08:19:27;;;;;;;8.68;3.00;;;;;;;36.69;25.44;100261.44;5139412;27;20054;-78
2021/05/23 08:22:31;;;;;;;8.27;3.50;;;;;;;33.89;29.07;100273.97;5162900;27;20092;-77
2021/05/23 08:25:35;;;;;;;11.00;3.08;;;;;;;32.35;31.02;100270.38;5159442;27;20073;-79
2021/05/23 08:28:40;;;;;;;8.35;3.28;;;;;;;31.90;31.99;100267.59;5145349;27;20476;-75
2021/05/23 08:31:46;;;;;;;11.98;3.35;;;;;;;30.13;34.62;100269.44;5146931;27;20053;-74
2021/05/23 08:34:50;;;;;;;12.15;3.47;;;;;;;28.75;37.77;100272.00;5153741;27;20053;-77
2021/05/23 08:37:54;;;;;;;12.27;3.00;;;;;;;28.32;38.57;100262.50;5146683;27;20054;-75
2021/05/23 08:41:00;;;;;;;9.48;3.38;;;;;;;27.44;38.47;100265.06;5138487;27;20051;-75
2021/05/23 08:44:05;;;;;;;10.23;3.13;;;;;;;27.75;39.08;100266.50;5137828;27;20093;-77
2021/05/23 08:47:09;;;;;;;11.52;3.25;;;;;;;27.37;39.67;100269.88;5125272;27;20078;-77
2021/05/23 08:50:19;;;;;;;9.40;3.22;;;;;;;27.40;40.09;100277.69;5138279;27;20058;-75
2021/05/23 08:53:26;;;;;;;11.68;3.35;;;;;;;27.61;38.98;100276.97;5138146;27;20116;-74
2021/05/23 08:56:30;;;;;;;12.63;3.80;;;;;;;27.33;38.13;100282.47;5137977;27;20042;-74
2021/05/23 08:59:35;;;;;;;9.80;2.92;;;;;;;27.41;38.75;100284.88;5138048;27;20394;-75
2021/05/23 09:02:50;;;;;;;11.77;3.42;;;;;;;27.33;38.99;100284.41;5137998;27;20046;-76
2021/05/23 09:05:58;;;;;;;8.88;2.90;;;;;;;27.30;39.06;100279.38;5137894;27;20070;-75
2021/05/23 09:09:08;;;;;;;10.50;2.92;;;;;;;27.32;38.56;100289.06;5137979;27;20046;-76
2021/05/23 09:12:14;;;;;;;8.32;3.00;;;;;;;26.98;39.46;100296.38;5137734;27;20051;-75
2021/05/23 09:15:19;;;;;;;7.97;3.15;;;;;;;26.95;37.50;100301.50;5138187;27;20050;-76
2021/05/23 09:18:23;;;;;;;8.00;3.03;;;;;;;26.70;38.55;100311.94;5137345;27;20050;-76
2021/05/23 09:21:33;;;;;;;7.93;3.20;;;;;;;26.63;39.49;100311.22;5135733;27;20062;-75
2021/05/23 09:24:58;;;;;;;10.35;4.13;;;;;;;26.54;39.93;100320.94;5134241;27;20050;-74
2021/05/23 09:28:05;;;;;;;17.35;4.05;;;;;;;26.51;40.36;100318.66;5134878;27;20050;-77
2021/05/23 09:31:11;;;;;;;9.82;3.10;;;;;;;26.35;40.39;100321.03;5135469;27;20046;-76
2021/05/23 09:34:21;;;;;;;10.75;3.67;;;;;;;26.28;39.81;100320.31;5136253;27;20054;-76
2021/05/23 09:37:25;;;;;;;9.85;3.53;;;;;;;26.21;40.52;100319.59;5139641;27;20050;-80
2021/05/23 09:40:36;;;;;;;11.63;3.20;;;;;;;26.23;40.88;100311.06;5139942;27;20054;-76
2021/05/23 09:43:40;;;;;;;10.20;3.40;;;;;;;26.19;41.10;100320.91;5141323;27;20050;-77
2021/05/23 09:46:52;;;;;;;10.10;2.65;;;;;;;26.15;40.42;100311.41;5137314;27;20108;-86
2021/05/23 09:49:57;;;;;;;12.13;3.67;;;;;;;26.11;39.80;100311.06;5123881;27;20046;-78
2021/05/23 09:53:03;;;;;;;9.70;3.53;;;;;;;25.99;40.96;100314.84;5139254;27;20053;-86
2021/05/23 09:56:11;;;;;;;11.18;3.95;;;;;;;25.93;41.41;100318.50;5103770;28;20063;-85
2021/05/23 09:59:27;;;;;;;11.23;3.95;;;;;;;25.83;41.63;100319.94;5104884;28;20067;-76
2021/05/23 10:02:32;;;;;;;10.50;3.40;;;;;;;25.61;41.45;100328.94;5095879;28;20379;-86
2021/05/23 10:05:44;;;;;;;8.00;2.70;;;;;;;25.52;39.58;100333.09;5095835;28;20039;-76
2021/05/23 10:08:48;;;;;;;11.50;3.58;;;;;;;25.54;41.51;100333.69;5095099;28;20051;-76
2021/05/23 10:11:53;;;;;;;8.85;3.78;;;;;;;25.87;41.11;100339.56;5092271;28;20043;-76
2021/05/23 10:14:58;;;;;;;8.65;3.10;;;;;;;25.91;40.28;100345.44;5093806;28;20501;-76
2021/05/23 10:18:02;;;;;;;12.75;4.55;;;;;;;26.03;41.90;100344.38;5094189;28;20047;-76
2021/05/23 10:21:07;;;;;;;10.88;4.28;;;;;;;26.17;42.58;100354.13;5094196;28;20051;-76
2021/05/23 10:24:12;;;;;;;42.45;28.95;;;;;;;26.15;42.57;100359.03;5093499;28;20047;-76
2021/05/23 10:27:20;;;;;;;13.25;4.28;;;;;;;26.23;41.50;100350.44;5094669;28;20048;-75
2021/05/23 10:30:25;;;;;;;13.40;4.90;;;;;;;26.21;40.69;100351.75;5095616;28;20059;-76
2021/05/23 10:33:30;;;;;;;15.05;4.60;;;;;;;26.12;40.97;100358.69;5094591;28;20098;-75
2021/05/23 10:36:40;;;;;;;14.68;4.38;;;;;;;26.02;41.14;100345.47;5095234;28;20051;-76
2021/05/23 10:39:51;;;;;;;9.90;3.50;;;;;;;25.75;42.75;100361.50;5094505;28;20047;-76
2021/05/23 10:42:58;;;;;;;13.60;4.70;;;;;;;25.78;42.87;100368.47;5095189;28;20494;-76
2021/05/23 10:46:09;;;;;;;10.60;4.22;;;;;;;25.74;42.28;100361.75;5095127;28;20055;-75
2021/05/23 10:49:14;;;;;;;15.25;5.55;;;;;;;25.66;42.89;100359.31;5094991;28;20051;-76
2021/05/23 10:52:19;;;;;;;11.45;4.60;;;;;;;25.53;42.75;100354.03;5094876;28;20043;-76
2021/05/23 10:55:24;;;;;;;13.45;4.85;;;;;;;25.62;42.29;100360.88;5126444;27;20054;-76
2021/05/23 10:58:29;;;;;;;12.25;5.25;;;;;;;25.65;44.03;100354.91;5135800;27;20046;-75
2021/05/23 11:01:56;;;;;;;11.57;6.07;;;;;;;25.46;44.78;100359.59;5135722;27;20062;-76
2021/05/23 11:05:04;;;;;;;11.75;5.65;;;;;;;25.54;43.91;100355.69;5135735;27;20050;-75
2021/05/23 11:08:13;;;;;;;11.93;5.60;;;;;;;25.34;44.00;100360.56;5135943;27;20389;-75
2021/05/23 11:11:20;;;;;;;13.52;5.45;;;;;;;25.37;44.79;100343.63;5135598;27;20405;-76
2021/05/23 11:14:25;;;;;;;10.82;4.22;;;;;;;25.47;44.82;100343.94;5135519;27;20481;-76
2021/05/23 11:17:32;;;;;;;15.25;4.60;;;;;;;25.46;44.24;100350.50;5135395;27;20058;-76
2021/05/23 11:20:37;;;;;;;11.82;5.22;;;;;;;25.48;43.63;100356.63;5122462;27;20046;-75
2021/05/23 11:23:58;;;;;;;16.85;4.68;;;;;;;25.39;44.96;100346.97;5135399;27;20385;-76
2021/05/23 11:27:14;;;;;;;14.20;5.07;;;;;;;25.40;44.18;100348.66;5122569;27;20051;-75
2021/05/23 11:30:19;;;;;;;13.95;4.57;;;;;;;25.57;43.44;100357.97;5135137;27;20050;-75
2021/05/23 11:33:23;;;;;;;10.48;3.58;;;;;;;25.79;42.17;100354.50;5135365;27;20054;-76
2021/05/23 11:36:33;;;;;;;8.30;4.35;;;;;;;25.69;39.30;100353.38;5134619;27;20394;-76
2021/05/23 11:39:38;;;;;;;10.98;3.45;;;;;;;25.85;40.25;100353.53;5134985;27;20493;-75
2021/05/23 11:42:43;;;;;;;15.20;4.25;;;;;;;25.78;42.95;100354.72;5134928;27;20389;-75
2021/05/23 11:45:56;;;;;;;13.90;3.83;;;;;;;25.22;43.16;100327.53;5135054;27;20398;-76
2021/05/23 11:49:01;;;;;;;;;;;;;;;25.24;42.78;100325.38;5135374;27;20046;-76
2021/05/23 11:52:06;;;;;;;16.30;3.55;;;;;;;25.13;44.44;100343.47;5134775;27;20376;-76
2021/05/23 11:55:11;;;;;;;11.80;3.38;;;;;;;25.29;43.64;100331.03;5134262;28;20054;-76
2021/05/23 11:58:15;;;;;;;13.20;4.05;;;;;;;25.23;43.57;100322.88;5134679;28;20047;-86
2021/05/23 12:01:29;;;;;;;12.20;3.83;;;;;;;24.91;44.68;100336.75;5122284;28;20476;-77
2021/05/23 12:04:34;;;;;;;9.38;3.50;;;;;;;24.91;43.18;100336.75;5122452;28;20397;-75
2021/05/23 12:07:39;;;;;;;13.60;3.67;;;;;;;24.81;45.26;100333.72;5134738;28;20401;-75
2021/05/23 12:10:44;;;;;;;10.05;3.60;;;;;;;24.91;44.40;100325.75;5134650;28;20043;-75
2021/05/23 12:13:49;;;;;;;13.45;4.40;;;;;;;24.90;45.13;100337.00;5134668;28;20043;-75
2021/05/23 12:17:05;;;;;;;12.98;4.43;;;;;;;24.69;45.53;100320.94;5134579;28;20524;-75
2021/05/23 12:20:10;;;;;;;11.80;3.63;;;;;;;24.56;45.60;100320.00;5134842;28;20038;-75
2021/05/23 12:23:15;;;;;;;9.43;4.18;;;;;;;24.61;45.34;100324.81;5122117;28;20485;-75
2021/05/23 12:26:20;;;;;;;14.02;4.20;;;;;;;24.50;45.83;100315.41;5121971;28;20058;-75
2021/05/23 12:29:25;;;;;;;11.20;4.35;;;;;;;24.49;45.72;100326.63;5134643;28;20058;-75
2021/05/23 12:32:39;;;;;;;13.48;4.78;;;;;;;24.64;46.36;100324.34;5134633;28;20058;-75
2021/05/23 12:35:44;;;;;;;14.82;4.00;;;;;;;24.70;45.75;100320.69;5134436;28;20488;-75
2021/05/23 12:39:02;;;;;;;17.17;5.45;;;;;;;24.65;44.75;100325.19;5121605;28;20047;-75
2021/05/23 12:42:07;;;;;;;10.48;4.13;;;;;;;24.63;45.31;100328.16;5134693;28;20054;-76
2021/05/23 12:45:11;;;;;;;10.00;3.58;;;;;;;24.70;45.58;100330.84;5121685;28;20489;-75
2021/05/23 12:48:17;;;;;;;9.77;4.30;;;;;;;24.85;45.10;100323.94;5134447;28;20425;-75
2021/05/23 12:51:27;;;;;;;12.02;4.20;;;;;;;24.76;44.65;100325.28;5121716;28;20058;-75
2021/05/23 12:54:33;;;;;;;12.73;4.45;;;;;;;24.76;45.22;100321.69;5133974;28;20042;-75
2021/05/23 12:57:48;;;;;;;12.40;4.30;;;;;;;24.83;44.69;100322.50;5134191;28;20050;-75
2021/05/23 13:00:53;;;;;;;9.15;3.78;;;;;;;24.88;45.55;100314.41;5134369;27;20105;-75
2021/05/23 13:04:00;;;;;;;9.38;4.13;;;;;;;24.69;45.09;100321.75;5138109;27;20051;-75
2021/05/23 13:07:08;;;;;;;10.48;4.90;;;;;;;24.60;44.99;100317.63;5137693;27;20037;-75
2021/05/23 13:10:15;;;;;;;8.75;3.95;;;;;;;24.66;44.26;100319.47;5137947;27;20066;-76
2021/05/23 13:13:19;;;;;;;11.25;3.40;;;;;;;24.69;44.72;100318.19;5125271;27;20050;-75
2021/05/23 13:16:24;;;;;;;9.27;3.47;;;;;;;24.74;45.53;100310.13;5137765;27;20051;-75
2021/05/23 13:19:37;;;;;;;11.10;3.50;;;;;;;24.97;44.40;100304.78;5137801;27;20112;-76
2021/05/23 13:22:43;;;;;;;9.18;3.80;;;;;;;24.97;43.58;100305.63;5137745;27;20050;-75
2021/05/23 13:25:48;;;;;;;9.90;2.92;;;;;;;25.09;42.28;100312.03;5137912;27;20066;-75
2021/05/23 13:28:52;;;;;;;12.77;2.85;;;;;;;25.08;41.71;100318.59;5137398;27;20042;-85
2021/05/23 13:31:57;;;;;;;8.23;2.53;;;;;;;25.28;40.84;100318.38;5137072;27;20054;-75
2021/05/23 13:35:01;;;;;;;10.80;2.65;;;;;;;25.39;40.48;100312.09;5136985;27;20049;-76
2021/05/23 13:38:06;;;;;;;9.00;2.55;;;;;;;25.44;41.26;100309.47;5136796;27;20050;-77
2021/05/23 13:41:10;;;;;;;7.47;2.35;;;;;;;25.00;41.22;100305.19;5137402;27;20062;-77
2021/05/23 13:44:18;;;;;;;7.47;2.50;;;;;;;25.07;41.03;100305.09;5124024;27;20042;-85
2021/05/23 13:47:22;;;;;;;8.82;2.42;;;;;;;25.06;42.23;100304.25;5137637;27;20050;-78
2021/05/23 13:50:27;;;;;;;8.95;1.73;;;;;;;25.17;41.43;100295.25;5136984;27;20058;-83
2021/05/23 13:53:32;;;;;;;8.90;2.10;;;;;;;25.28;42.24;100314.78;5136949;27;20039;-78
2021/05/23 13:56:37;;;;;;;8.88;2.30;;;;;;;25.32;41.24;100308.59;5147403;27;20054;-79
2021/05/23 13:59:41;;;;;;;10.43;2.50;;;;;;;25.13;41.67;100310.50;5145857;27;20050;-76
2021/05/23 14:02:46;;;;;;;11.00;3.00;;;;;;;24.89;41.68;100314.19;5156877;27;20053;-76
2021/05/23 14:05:53;;;;;;;8.70;2.60;;;;;;;24.90;42.13;100321.34;5157696;27;20061;-77
2021/05/23 14:08:58;;;;;;;8.63;2.58;;;;;;;24.95;42.94;100317.91;5157653;27;20061;-77
2021/05/23 14:12:03;;;;;;;10.07;2.47;;;;;;;24.93;42.51;100331.91;5144449;27;20046;-76
2021/05/23 14:15:08;;;;;;;10.38;2.67;;;;;;;25.01;42.82;100323.31;5144427;27;20053;-77
2021/05/23 14:18:13;;;;;;;11.25;2.67;;;;;;;25.17;42.95;100335.63;5157375;27;20062;-86